sensor_id;sensor_type;location;lat;lon;timestamp;P1;durP1;ratioP1;P2;durP2;ratioP2
66946;SDS011;53853;51.982;5.928;2023-08-17T00:01:01;3.33;;;1.55;;
66946;SDS011;53853;51.982;5.928;2023-08-17T00:03:31;2.92;;;1.40;;
66946;SDS011;53853;51.982;5.928;2023-08-17T00:06:01;3.08;;;1.40;;
66946;SDS011;53853;51.982;5.928;2023-08-17T00:08:34;4.13;;;1.95;;
66946;SDS011;53853;51.982;5.928;2023-08-17T00:11:03;4.95;;;1.77;;
66946;SDS011;53853;51.982;5.928;2023-08-17T00:13:33;5.15;;;1.73;;
66946;SDS011;53853;51.982;5.928;2023-08-17T00:16:03;4.45;;;1.48;;
66946;SDS011;53853;51.982;5.928;2023-08-17T00:18:33;4.85;;;1.85;;
66946;SDS011;53853;51.982;5.928;2023-08-17T00:21:03;5.57;;;1.95;;
66946;SDS011;53853;51.982;5.928;2023-08-17T00:23:36;2.88;;;1.60;;
66946;SDS011;53853;51.982;5.928;2023-08-17T00:26:06;3.97;;;1.52;;
66946;SDS011;53853;51.982;5.928;2023-08-17T00:28:36;6.20;;;2.28;;
66946;SDS011;53853;51.982;5.928;2023-08-17T00:31:06;6.28;;;1.80;;
66946;SDS011;53853;51.982;5.928;2023-08-17T00:33:36;3.58;;;1.88;;
66946;SDS011;53853;51.982;5.928;2023-08-17T00:36:08;4.35;;;1.77;;
66946;SDS011;53853;51.982;5.928;2023-08-17T00:38:40;4.18;;;2.10;;
66946;SDS011;53853;51.982;5.928;2023-08-17T00:41:10;3.70;;;1.63;;
66946;SDS011;53853;51.982;5.928;2023-08-17T00:43:40;4.15;;;1.55;;
66946;SDS011;53853;51.982;5.928;2023-08-17T00:46:10;3.80;;;1.50;;
66946;SDS011;53853;51.982;5.928;2023-08-17T00:48:41;2.65;;;1.30;;
66946;SDS011;53853;51.982;5.928;2023-08-17T00:51:11;4.95;;;1.95;;
66946;SDS011;53853;51.982;5.928;2023-08-17T00:53:44;4.90;;;1.63;;
66946;SDS011;53853;51.982;5.928;2023-08-17T00:56:14;3.72;;;1.88;;
66946;SDS011;53853;51.982;5.928;2023-08-17T00:58:45;3.25;;;2.00;;
66946;SDS011;53853;51.982;5.928;2023-08-17T01:01:15;3.60;;;1.58;;
66946;SDS011;53853;51.982;5.928;2023-08-17T01:03:45;2.90;;;1.20;;
66946;SDS011;53853;51.982;5.928;2023-08-17T01:06:16;5.68;;;1.95;;
66946;SDS011;53853;51.982;5.928;2023-08-17T01:08:49;4.15;;;1.52;;
66946;SDS011;53853;51.982;5.928;2023-08-17T01:11:22;4.25;;;2.08;;
66946;SDS011;53853;51.982;5.928;2023-08-17T01:14:00;2.95;;;1.40;;
66946;SDS011;53853;51.982;5.928;2023-08-17T01:16:34;2.85;;;1.75;;
66946;SDS011;53853;51.982;5.928;2023-08-17T01:19:08;3.35;;;1.58;;
66946;SDS011;53853;51.982;5.928;2023-08-17T01:21:42;6.05;;;2.30;;
66946;SDS011;53853;51.982;5.928;2023-08-17T01:24:21;4.47;;;1.40;;
66946;SDS011;53853;51.982;5.928;2023-08-17T01:29:21;5.30;;;2.30;;
66946;SDS011;53853;51.982;5.928;2023-08-17T01:31:53;4.78;;;1.92;;
66946;SDS011;53853;51.982;5.928;2023-08-17T01:34:32;3.13;;;1.42;;
66946;SDS011;53853;51.982;5.928;2023-08-17T01:37:07;4.30;;;1.85;;
66946;SDS011;53853;51.982;5.928;2023-08-17T01:39:43;4.30;;;1.70;;
66946;SDS011;53853;51.982;5.928;2023-08-17T01:42:18;6.47;;;1.92;;
66946;SDS011;53853;51.982;5.928;2023-08-17T01:44:49;6.32;;;1.92;;
66946;SDS011;53853;51.982;5.928;2023-08-17T01:47:20;2.42;;;1.30;;
66946;SDS011;53853;51.982;5.928;2023-08-17T01:49:50;3.40;;;1.35;;
66946;SDS011;53853;51.982;5.928;2023-08-17T01:52:21;5.63;;;2.17;;
66946;SDS011;53853;51.982;5.928;2023-08-17T01:54:55;2.60;;;1.38;;
66946;SDS011;53853;51.982;5.928;2023-08-17T01:57:25;4.47;;;1.60;;
66946;SDS011;53853;51.982;5.928;2023-08-17T01:59:55;5.70;;;2.10;;
66946;SDS011;53853;51.982;5.928;2023-08-17T02:02:26;2.55;;;1.60;;
66946;SDS011;53853;51.982;5.928;2023-08-17T02:04:56;2.65;;;1.35;;
66946;SDS011;53853;51.982;5.928;2023-08-17T02:07:26;4.03;;;1.70;;
66946;SDS011;53853;51.982;5.928;2023-08-17T02:09:59;5.03;;;1.80;;
66946;SDS011;53853;51.982;5.928;2023-08-17T02:12:29;4.15;;;1.98;;
66946;SDS011;53853;51.982;5.928;2023-08-17T02:14:59;4.47;;;2.13;;
66946;SDS011;53853;51.982;5.928;2023-08-17T02:17:29;4.72;;;1.70;;
66946;SDS011;53853;51.982;5.928;2023-08-17T02:19:59;3.97;;;1.60;;
66946;SDS011;53853;51.982;5.928;2023-08-17T02:22:29;4.25;;;2.05;;
66946;SDS011;53853;51.982;5.928;2023-08-17T02:25:02;4.70;;;1.88;;
66946;SDS011;53853;51.982;5.928;2023-08-17T02:27:32;2.53;;;1.45;;
66946;SDS011;53853;51.982;5.928;2023-08-17T02:30:03;6.70;;;1.98;;
66946;SDS011;53853;51.982;5.928;2023-08-17T02:32:34;4.07;;;1.52;;
66946;SDS011;53853;51.982;5.928;2023-08-17T02:35:04;6.95;;;2.00;;
66946;SDS011;53853;51.982;5.928;2023-08-17T02:37:35;6.10;;;1.98;;
66946;SDS011;53853;51.982;5.928;2023-08-17T02:40:08;5.63;;;2.38;;
66946;SDS011;53853;51.982;5.928;2023-08-17T02:42:39;4.63;;;1.90;;
66946;SDS011;53853;51.982;5.928;2023-08-17T02:45:09;3.50;;;1.45;;
66946;SDS011;53853;51.982;5.928;2023-08-17T02:47:39;4.15;;;1.77;;
66946;SDS011;53853;51.982;5.928;2023-08-17T02:50:09;4.35;;;1.92;;
66946;SDS011;53853;51.982;5.928;2023-08-17T02:52:39;5.18;;;2.40;;
66946;SDS011;53853;51.982;5.928;2023-08-17T02:55:12;3.65;;;1.80;;
66946;SDS011;53853;51.982;5.928;2023-08-17T02:57:42;3.90;;;1.60;;
66946;SDS011;53853;51.982;5.928;2023-08-17T03:00:12;3.58;;;1.60;;
66946;SDS011;53853;51.982;5.928;2023-08-17T03:02:43;4.38;;;1.50;;
66946;SDS011;53853;51.982;5.928;2023-08-17T03:05:13;2.55;;;1.50;;
66946;SDS011;53853;51.982;5.928;2023-08-17T03:07:43;3.63;;;1.77;;
66946;SDS011;53853;51.982;5.928;2023-08-17T03:10:16;5.00;;;2.13;;
66946;SDS011;53853;51.982;5.928;2023-08-17T03:12:46;4.17;;;1.70;;
66946;SDS011;53853;51.982;5.928;2023-08-17T03:15:16;5.90;;;1.80;;
66946;SDS011;53853;51.982;5.928;2023-08-17T03:17:46;4.15;;;1.70;;
66946;SDS011;53853;51.982;5.928;2023-08-17T03:20:16;5.28;;;1.70;;
66946;SDS011;53853;51.982;5.928;2023-08-17T03:22:46;6.03;;;1.88;;
66946;SDS011;53853;51.982;5.928;2023-08-17T03:25:19;4.72;;;2.00;;
66946;SDS011;53853;51.982;5.928;2023-08-17T03:27:49;3.53;;;1.55;;
66946;SDS011;53853;51.982;5.928;2023-08-17T03:30:20;3.13;;;1.73;;
66946;SDS011;53853;51.982;5.928;2023-08-17T03:32:51;5.85;;;1.60;;
66946;SDS011;53853;51.982;5.928;2023-08-17T03:35:21;2.97;;;1.55;;
66946;SDS011;53853;51.982;5.928;2023-08-17T03:37:52;3.25;;;1.67;;
66946;SDS011;53853;51.982;5.928;2023-08-17T03:40:24;3.53;;;2.05;;
66946;SDS011;53853;51.982;5.928;2023-08-17T03:42:54;3.17;;;1.63;;
66946;SDS011;53853;51.982;5.928;2023-08-17T03:45:24;4.43;;;1.90;;
66946;SDS011;53853;51.982;5.928;2023-08-17T03:47:54;5.15;;;2.28;;
66946;SDS011;53853;51.982;5.928;2023-08-17T03:50:25;6.40;;;3.05;;
66946;SDS011;53853;51.982;5.928;2023-08-17T03:52:56;2.80;;;1.50;;
66946;SDS011;53853;51.982;5.928;2023-08-17T03:55:29;7.97;;;2.17;;
66946;SDS011;53853;51.982;5.928;2023-08-17T03:57:59;8.05;;;2.75;;
66946;SDS011;53853;51.982;5.928;2023-08-17T04:00:29;5.63;;;2.53;;
66946;SDS011;53853;51.982;5.928;2023-08-17T04:02:59;3.50;;;1.63;;
66946;SDS011;53853;51.982;5.928;2023-08-17T04:05:30;5.40;;;1.98;;
66946;SDS011;53853;51.982;5.928;2023-08-17T04:08:00;5.32;;;1.83;;
66946;SDS011;53853;51.982;5.928;2023-08-17T04:10:32;3.92;;;1.60;;
66946;SDS011;53853;51.982;5.928;2023-08-17T04:13:03;4.07;;;2.45;;
66946;SDS011;53853;51.982;5.928;2023-08-17T04:15:33;5.95;;;2.22;;
66946;SDS011;53853;51.982;5.928;2023-08-17T04:18:03;5.82;;;2.15;;
66946;SDS011;53853;51.982;5.928;2023-08-17T04:20:34;3.72;;;1.60;;
66946;SDS011;53853;51.982;5.928;2023-08-17T04:23:04;6.25;;;2.38;;
66946;SDS011;53853;51.982;5.928;2023-08-17T04:25:36;4.63;;;1.67;;
66946;SDS011;53853;51.982;5.928;2023-08-17T04:28:06;3.53;;;1.90;;
66946;SDS011;53853;51.982;5.928;2023-08-17T04:30:37;4.05;;;1.88;;
66946;SDS011;53853;51.982;5.928;2023-08-17T04:33:07;7.53;;;2.00;;
66946;SDS011;53853;51.982;5.928;2023-08-17T04:35:38;5.13;;;2.13;;
66946;SDS011;53853;51.982;5.928;2023-08-17T04:38:08;4.20;;;2.17;;
66946;SDS011;53853;51.982;5.928;2023-08-17T04:40:40;2.90;;;1.50;;
66946;SDS011;53853;51.982;5.928;2023-08-17T04:43:10;3.95;;;1.23;;
66946;SDS011;53853;51.982;5.928;2023-08-17T04:45:41;3.88;;;1.98;;
66946;SDS011;53853;51.982;5.928;2023-08-17T04:48:14;4.38;;;1.83;;
66946;SDS011;53853;51.982;5.928;2023-08-17T04:50:46;4.53;;;1.77;;
66946;SDS011;53853;51.982;5.928;2023-08-17T04:53:16;3.78;;;1.52;;
66946;SDS011;53853;51.982;5.928;2023-08-17T04:55:48;4.55;;;1.50;;
66946;SDS011;53853;51.982;5.928;2023-08-17T04:58:21;3.42;;;1.67;;
66946;SDS011;53853;51.982;5.928;2023-08-17T05:00:51;5.32;;;1.85;;
66946;SDS011;53853;51.982;5.928;2023-08-17T05:03:21;3.85;;;1.73;;
66946;SDS011;53853;51.982;5.928;2023-08-17T05:05:52;4.10;;;1.73;;
66946;SDS011;53853;51.982;5.928;2023-08-17T05:08:22;4.72;;;1.60;;
66946;SDS011;53853;51.982;5.928;2023-08-17T05:10:54;3.33;;;1.50;;
66946;SDS011;53853;51.982;5.928;2023-08-17T05:15:59;3.20;;;2.10;;
66946;SDS011;53853;51.982;5.928;2023-08-17T05:18:30;3.85;;;1.83;;
66946;SDS011;53853;51.982;5.928;2023-08-17T05:21:00;6.28;;;2.78;;
66946;SDS011;53853;51.982;5.928;2023-08-17T05:23:31;3.35;;;1.70;;
66946;SDS011;53853;51.982;5.928;2023-08-17T05:26:04;6.82;;;2.30;;
66946;SDS011;53853;51.982;5.928;2023-08-17T05:28:34;7.75;;;1.75;;
66946;SDS011;53853;51.982;5.928;2023-08-17T05:31:05;5.07;;;1.50;;
66946;SDS011;53853;51.982;5.928;2023-08-17T05:33:38;2.58;;;1.20;;
66946;SDS011;53853;51.982;5.928;2023-08-17T05:36:09;2.45;;;1.33;;
66946;SDS011;53853;51.982;5.928;2023-08-17T05:38:39;2.58;;;1.42;;
66946;SDS011;53853;51.982;5.928;2023-08-17T05:41:11;4.43;;;1.73;;
66946;SDS011;53853;51.982;5.928;2023-08-17T05:43:43;2.95;;;1.30;;
66946;SDS011;53853;51.982;5.928;2023-08-17T05:46:14;5.43;;;1.80;;
66946;SDS011;53853;51.982;5.928;2023-08-17T05:48:44;3.15;;;1.63;;
66946;SDS011;53853;51.982;5.928;2023-08-17T05:51:14;4.82;;;1.98;;
66946;SDS011;53853;51.982;5.928;2023-08-17T05:53:44;2.10;;;1.38;;
66946;SDS011;53853;51.982;5.928;2023-08-17T05:56:16;3.60;;;1.55;;
66946;SDS011;53853;51.982;5.928;2023-08-17T05:58:46;4.47;;;1.60;;
66946;SDS011;53853;51.982;5.928;2023-08-17T06:01:16;3.80;;;1.65;;
66946;SDS011;53853;51.982;5.928;2023-08-17T06:03:46;4.60;;;1.70;;
66946;SDS011;53853;51.982;5.928;2023-08-17T06:06:16;2.78;;;1.33;;
66946;SDS011;53853;51.982;5.928;2023-08-17T06:08:46;2.33;;;1.10;;
66946;SDS011;53853;51.982;5.928;2023-08-17T06:11:19;2.88;;;1.50;;
66946;SDS011;53853;51.982;5.928;2023-08-17T06:13:49;3.97;;;1.50;;
66946;SDS011;53853;51.982;5.928;2023-08-17T06:16:19;8.13;;;1.80;;
66946;SDS011;53853;51.982;5.928;2023-08-17T06:18:49;8.38;;;2.15;;
66946;SDS011;53853;51.982;5.928;2023-08-17T06:21:19;3.13;;;1.73;;
66946;SDS011;53853;51.982;5.928;2023-08-17T06:23:49;6.05;;;1.80;;
66946;SDS011;53853;51.982;5.928;2023-08-17T06:26:21;5.50;;;1.70;;
66946;SDS011;53853;51.982;5.928;2023-08-17T06:28:51;6.75;;;2.75;;
66946;SDS011;53853;51.982;5.928;2023-08-17T06:31:22;5.03;;;2.03;;
66946;SDS011;53853;51.982;5.928;2023-08-17T06:33:53;4.57;;;1.60;;
66946;SDS011;53853;51.982;5.928;2023-08-17T06:36:23;4.68;;;1.77;;
66946;SDS011;53853;51.982;5.928;2023-08-17T06:38:53;2.95;;;1.40;;
66946;SDS011;53853;51.982;5.928;2023-08-17T06:41:25;6.25;;;1.83;;
66946;SDS011;53853;51.982;5.928;2023-08-17T06:43:55;2.65;;;1.45;;
66946;SDS011;53853;51.982;5.928;2023-08-17T06:46:25;4.25;;;1.45;;
66946;SDS011;53853;51.982;5.928;2023-08-17T06:48:55;2.15;;;1.13;;
66946;SDS011;53853;51.982;5.928;2023-08-17T06:51:25;3.20;;;1.50;;
66946;SDS011;53853;51.982;5.928;2023-08-17T06:53:55;4.38;;;1.35;;
66946;SDS011;53853;51.982;5.928;2023-08-17T06:56:28;4.95;;;1.98;;
66946;SDS011;53853;51.982;5.928;2023-08-17T06:58:58;7.07;;;1.95;;
66946;SDS011;53853;51.982;5.928;2023-08-17T07:01:28;6.68;;;1.77;;
66946;SDS011;53853;51.982;5.928;2023-08-17T07:03:58;4.93;;;2.15;;
66946;SDS011;53853;51.982;5.928;2023-08-17T07:06:28;7.72;;;2.05;;
66946;SDS011;53853;51.982;5.928;2023-08-17T07:09:00;3.90;;;1.42;;
66946;SDS011;53853;51.982;5.928;2023-08-17T07:11:33;4.65;;;1.50;;
66946;SDS011;53853;51.982;5.928;2023-08-17T07:14:03;4.82;;;1.40;;
66946;SDS011;53853;51.982;5.928;2023-08-17T07:16:33;3.42;;;1.63;;
66946;SDS011;53853;51.982;5.928;2023-08-17T07:19:04;5.72;;;1.58;;
66946;SDS011;53853;51.982;5.928;2023-08-17T07:21:33;3.95;;;1.30;;
66946;SDS011;53853;51.982;5.928;2023-08-17T07:24:11;3.70;;;1.30;;
66946;SDS011;53853;51.982;5.928;2023-08-17T07:26:44;2.80;;;1.52;;
66946;SDS011;53853;51.982;5.928;2023-08-17T07:29:15;3.47;;;1.40;;
66946;SDS011;53853;51.982;5.928;2023-08-17T07:31:45;3.60;;;1.30;;
66946;SDS011;53853;51.982;5.928;2023-08-17T07:34:15;4.63;;;1.63;;
66946;SDS011;53853;51.982;5.928;2023-08-17T07:36:45;4.35;;;1.50;;
66946;SDS011;53853;51.982;5.928;2023-08-17T07:39:14;4.53;;;2.65;;
66946;SDS011;53853;51.982;5.928;2023-08-17T07:41:47;3.33;;;1.35;;
66946;SDS011;53853;51.982;5.928;2023-08-17T07:44:17;5.63;;;2.05;;
66946;SDS011;53853;51.982;5.928;2023-08-17T07:46:47;2.90;;;1.42;;
66946;SDS011;53853;51.982;5.928;2023-08-17T07:49:17;5.13;;;1.83;;
66946;SDS011;53853;51.982;5.928;2023-08-17T07:51:49;3.65;;;1.65;;
66946;SDS011;53853;51.982;5.928;2023-08-17T07:54:19;3.30;;;1.63;;
66946;SDS011;53853;51.982;5.928;2023-08-17T07:56:51;4.55;;;2.08;;
66946;SDS011;53853;51.982;5.928;2023-08-17T07:59:21;6.38;;;1.88;;
66946;SDS011;53853;51.982;5.928;2023-08-17T08:01:51;3.55;;;1.60;;
66946;SDS011;53853;51.982;5.928;2023-08-17T08:04:21;3.95;;;1.20;;
66946;SDS011;53853;51.982;5.928;2023-08-17T08:06:51;2.80;;;1.20;;
66946;SDS011;53853;51.982;5.928;2023-08-17T08:09:21;3.17;;;1.65;;
66946;SDS011;53853;51.982;5.928;2023-08-17T08:11:54;3.03;;;1.30;;
66946;SDS011;53853;51.982;5.928;2023-08-17T08:14:24;2.00;;;1.00;;
66946;SDS011;53853;51.982;5.928;2023-08-17T08:16:53;5.35;;;2.03;;
66946;SDS011;53853;51.982;5.928;2023-08-17T08:19:23;5.15;;;1.85;;
66946;SDS011;53853;51.982;5.928;2023-08-17T08:21:53;4.50;;;1.90;;
66946;SDS011;53853;51.982;5.928;2023-08-17T08:24:23;4.68;;;1.83;;
66946;SDS011;53853;51.982;5.928;2023-08-17T08:26:59;3.67;;;1.92;;
66946;SDS011;53853;51.982;5.928;2023-08-17T08:29:29;3.40;;;1.60;;
66946;SDS011;53853;51.982;5.928;2023-08-17T08:31:59;6.30;;;2.47;;
66946;SDS011;53853;51.982;5.928;2023-08-17T08:34:29;3.78;;;1.60;;
66946;SDS011;53853;51.982;5.928;2023-08-17T08:36:59;5.43;;;2.15;;
66946;SDS011;53853;51.982;5.928;2023-08-17T08:39:29;4.63;;;1.70;;
66946;SDS011;53853;51.982;5.928;2023-08-17T08:42:02;3.25;;;1.67;;
66946;SDS011;53853;51.982;5.928;2023-08-17T08:44:32;4.72;;;2.10;;
66946;SDS011;53853;51.982;5.928;2023-08-17T08:47:02;7.43;;;2.33;;
66946;SDS011;53853;51.982;5.928;2023-08-17T08:49:33;4.85;;;2.03;;
66946;SDS011;53853;51.982;5.928;2023-08-17T08:52:07;7.97;;;2.40;;
66946;SDS011;53853;51.982;5.928;2023-08-17T08:57:16;5.28;;;2.22;;
66946;SDS011;53853;51.982;5.928;2023-08-17T08:59:47;5.13;;;2.30;;
66946;SDS011;53853;51.982;5.928;2023-08-17T09:02:17;4.05;;;1.70;;
66946;SDS011;53853;51.982;5.928;2023-08-17T09:04:47;8.45;;;3.50;;
66946;SDS011;53853;51.982;5.928;2023-08-17T09:07:18;5.47;;;2.40;;
66946;SDS011;53853;51.982;5.928;2023-08-17T09:09:50;7.72;;;3.20;;
66946;SDS011;53853;51.982;5.928;2023-08-17T09:12:24;6.07;;;2.50;;
66946;SDS011;53853;51.982;5.928;2023-08-17T09:14:54;7.05;;;3.35;;
66946;SDS011;53853;51.982;5.928;2023-08-17T09:17:24;10.40;;;3.53;;
66946;SDS011;53853;51.982;5.928;2023-08-17T09:19:54;5.70;;;2.75;;
66946;SDS011;53853;51.982;5.928;2023-08-17T09:22:25;7.90;;;3.65;;
66946;SDS011;53853;51.982;5.928;2023-08-17T09:25:07;4.90;;;2.50;;
66946;SDS011;53853;51.982;5.928;2023-08-17T09:27:40;3.95;;;2.13;;
66946;SDS011;53853;51.982;5.928;2023-08-17T09:30:11;3.92;;;2.08;;
66946;SDS011;53853;51.982;5.928;2023-08-17T09:32:41;5.63;;;2.70;;
66946;SDS011;53853;51.982;5.928;2023-08-17T09:35:11;3.90;;;2.22;;
66946;SDS011;53853;51.982;5.928;2023-08-17T09:37:41;4.68;;;2.13;;
66946;SDS011;53853;51.982;5.928;2023-08-17T09:40:11;4.03;;;2.60;;
66946;SDS011;53853;51.982;5.928;2023-08-17T09:42:45;5.25;;;2.53;;
66946;SDS011;53853;51.982;5.928;2023-08-17T09:45:17;5.00;;;2.67;;
66946;SDS011;53853;51.982;5.928;2023-08-17T09:47:47;6.20;;;2.85;;
66946;SDS011;53853;51.982;5.928;2023-08-17T09:50:17;6.57;;;2.80;;
66946;SDS011;53853;51.982;5.928;2023-08-17T09:52:52;5.20;;;2.75;;
66946;SDS011;53853;51.982;5.928;2023-08-17T09:55:22;5.15;;;3.50;;
66946;SDS011;53853;51.982;5.928;2023-08-17T09:57:55;6.53;;;2.72;;
66946;SDS011;53853;51.982;5.928;2023-08-17T10:00:25;4.70;;;2.30;;
66946;SDS011;53853;51.982;5.928;2023-08-17T10:02:57;7.93;;;3.60;;
66946;SDS011;53853;51.982;5.928;2023-08-17T10:05:32;6.53;;;3.65;;
66946;SDS011;53853;51.982;5.928;2023-08-17T10:08:07;8.75;;;4.93;;
66946;SDS011;53853;51.982;5.928;2023-08-17T10:10:40;4.82;;;2.95;;
66946;SDS011;53853;51.982;5.928;2023-08-17T10:13:15;6.07;;;3.40;;
66946;SDS011;53853;51.982;5.928;2023-08-17T10:15:53;5.93;;;3.17;;
66946;SDS011;53853;51.982;5.928;2023-08-17T10:18:31;5.80;;;2.90;;
66946;SDS011;53853;51.982;5.928;2023-08-17T10:21:07;6.22;;;2.97;;
66946;SDS011;53853;51.982;5.928;2023-08-17T10:23:41;6.78;;;3.45;;
66946;SDS011;53853;51.982;5.928;2023-08-17T10:26:14;4.87;;;2.57;;
66946;SDS011;53853;51.982;5.928;2023-08-17T10:28:47;5.60;;;3.60;;
66946;SDS011;53853;51.982;5.928;2023-08-17T10:31:20;6.55;;;4.13;;
66946;SDS011;53853;51.982;5.928;2023-08-17T10:33:50;7.28;;;4.18;;
66946;SDS011;53853;51.982;5.928;2023-08-17T10:36:20;6.78;;;4.07;;
66946;SDS011;53853;51.982;5.928;2023-08-17T10:41:49;4.95;;;2.80;;
66946;SDS011;53853;51.982;5.928;2023-08-17T10:47:19;4.82;;;2.60;;
66946;SDS011;53853;51.982;5.928;2023-08-17T10:49:50;11.82;;;4.10;;
66946;SDS011;53853;51.982;5.928;2023-08-17T10:52:24;6.70;;;3.70;;
66946;SDS011;53853;51.982;5.928;2023-08-17T10:54:56;5.75;;;3.28;;
66946;SDS011;53853;51.982;5.928;2023-08-17T10:57:28;6.53;;;4.28;;
66946;SDS011;53853;51.982;5.928;2023-08-17T11:02:53;4.13;;;2.47;;
66946;SDS011;53853;51.982;5.928;2023-08-17T11:05:34;7.93;;;3.45;;
66946;SDS011;53853;51.982;5.928;2023-08-17T11:08:05;7.03;;;3.85;;
66946;SDS011;53853;51.982;5.928;2023-08-17T11:10:36;7.50;;;4.13;;
66946;SDS011;53853;51.982;5.928;2023-08-17T11:13:06;4.80;;;3.00;;
66946;SDS011;53853;51.982;5.928;2023-08-17T11:15:39;4.43;;;2.72;;
66946;SDS011;53853;51.982;5.928;2023-08-17T11:18:11;5.75;;;3.60;;
66946;SDS011;53853;51.982;5.928;2023-08-17T11:20:43;5.05;;;3.00;;
66946;SDS011;53853;51.982;5.928;2023-08-17T11:23:14;6.30;;;3.47;;
66946;SDS011;53853;51.982;5.928;2023-08-17T11:25:44;7.05;;;3.63;;
66946;SDS011;53853;51.982;5.928;2023-08-17T11:28:16;6.53;;;3.08;;
66946;SDS011;53853;51.982;5.928;2023-08-17T11:30:58;5.40;;;3.15;;
66946;SDS011;53853;51.982;5.928;2023-08-17T11:33:30;5.97;;;3.40;;
66946;SDS011;53853;51.982;5.928;2023-08-17T11:36:01;9.13;;;4.22;;
66946;SDS011;53853;51.982;5.928;2023-08-17T11:38:32;6.90;;;3.58;;
66946;SDS011;53853;51.982;5.928;2023-08-17T11:41:04;6.72;;;3.42;;
66946;SDS011;53853;51.982;5.928;2023-08-17T11:43:34;5.68;;;3.60;;
66946;SDS011;53853;51.982;5.928;2023-08-17T11:46:07;6.82;;;3.53;;
66946;SDS011;53853;51.982;5.928;2023-08-17T11:48:37;3.75;;;2.35;;
66946;SDS011;53853;51.982;5.928;2023-08-17T11:51:07;7.28;;;3.80;;
66946;SDS011;53853;51.982;5.928;2023-08-17T11:53:37;5.18;;;2.60;;
66946;SDS011;53853;51.982;5.928;2023-08-17T11:56:07;3.97;;;2.55;;
66946;SDS011;53853;51.982;5.928;2023-08-17T11:58:42;5.13;;;2.65;;
66946;SDS011;53853;51.982;5.928;2023-08-17T12:01:15;3.30;;;2.25;;
66946;SDS011;53853;51.982;5.928;2023-08-17T12:03:45;4.53;;;2.97;;
66946;SDS011;53853;51.982;5.928;2023-08-17T12:06:16;4.95;;;2.85;;
66946;SDS011;53853;51.982;5.928;2023-08-17T12:08:47;3.97;;;2.50;;
66946;SDS011;53853;51.982;5.928;2023-08-17T12:11:17;4.72;;;2.53;;
66946;SDS011;53853;51.982;5.928;2023-08-17T12:13:50;5.75;;;3.50;;
66946;SDS011;53853;51.982;5.928;2023-08-17T12:16:23;6.25;;;4.50;;
66946;SDS011;53853;51.982;5.928;2023-08-17T12:18:53;5.20;;;3.10;;
66946;SDS011;53853;51.982;5.928;2023-08-17T12:21:23;4.22;;;2.67;;
66946;SDS011;53853;51.982;5.928;2023-08-17T12:23:55;3.83;;;2.42;;
66946;SDS011;53853;51.982;5.928;2023-08-17T12:26:26;7.72;;;4.60;;
66946;SDS011;53853;51.982;5.928;2023-08-17T12:28:58;5.70;;;3.70;;
66946;SDS011;53853;51.982;5.928;2023-08-17T12:31:31;6.97;;;4.13;;
66946;SDS011;53853;51.982;5.928;2023-08-17T12:34:02;6.82;;;4.28;;
66946;SDS011;53853;51.982;5.928;2023-08-17T12:36:33;5.47;;;3.30;;
66946;SDS011;53853;51.982;5.928;2023-08-17T12:39:04;5.05;;;2.70;;
66946;SDS011;53853;51.982;5.928;2023-08-17T12:41:34;6.78;;;3.65;;
66946;SDS011;53853;51.982;5.928;2023-08-17T12:44:04;7.93;;;4.22;;
66946;SDS011;53853;51.982;5.928;2023-08-17T12:46:37;5.15;;;3.20;;
66946;SDS011;53853;51.982;5.928;2023-08-17T12:49:07;4.93;;;2.83;;
66946;SDS011;53853;51.982;5.928;2023-08-17T12:51:37;3.22;;;2.42;;
66946;SDS011;53853;51.982;5.928;2023-08-17T12:54:08;5.30;;;3.75;;
66946;SDS011;53853;51.982;5.928;2023-08-17T12:56:38;7.05;;;5.25;;
66946;SDS011;53853;51.982;5.928;2023-08-17T12:59:08;6.68;;;5.03;;
66946;SDS011;53853;51.982;5.928;2023-08-17T13:01:41;7.00;;;4.50;;
66946;SDS011;53853;51.982;5.928;2023-08-17T13:04:11;5.95;;;3.60;;
66946;SDS011;53853;51.982;5.928;2023-08-17T13:06:42;6.78;;;3.70;;
66946;SDS011;53853;51.982;5.928;2023-08-17T13:09:13;3.78;;;2.65;;
66946;SDS011;53853;51.982;5.928;2023-08-17T13:11:44;6.10;;;3.97;;
66946;SDS011;53853;51.982;5.928;2023-08-17T13:14:14;5.75;;;3.50;;
66946;SDS011;53853;51.982;5.928;2023-08-17T13:16:47;9.82;;;4.47;;
66946;SDS011;53853;51.982;5.928;2023-08-17T13:19:17;5.03;;;2.95;;
66946;SDS011;53853;51.982;5.928;2023-08-17T13:21:47;5.80;;;3.53;;
66946;SDS011;53853;51.982;5.928;2023-08-17T13:24:17;8.40;;;5.00;;
66946;SDS011;53853;51.982;5.928;2023-08-17T13:26:47;7.43;;;4.38;;
66946;SDS011;53853;51.982;5.928;2023-08-17T13:29:19;5.72;;;3.28;;
66946;SDS011;53853;51.982;5.928;2023-08-17T13:31:52;8.60;;;4.57;;
66946;SDS011;53853;51.982;5.928;2023-08-17T13:34:22;8.32;;;4.00;;
66946;SDS011;53853;51.982;5.928;2023-08-17T13:36:52;10.23;;;5.60;;
66946;SDS011;53853;51.982;5.928;2023-08-17T13:39:22;4.80;;;2.92;;
66946;SDS011;53853;51.982;5.928;2023-08-17T13:41:52;4.72;;;2.47;;
66946;SDS011;53853;51.982;5.928;2023-08-17T13:44:22;5.13;;;3.40;;
66946;SDS011;53853;51.982;5.928;2023-08-17T13:46:54;4.93;;;3.05;;
66946;SDS011;53853;51.982;5.928;2023-08-17T13:49:24;5.90;;;4.25;;
66946;SDS011;53853;51.982;5.928;2023-08-17T13:51:55;3.60;;;2.33;;
66946;SDS011;53853;51.982;5.928;2023-08-17T13:54:25;4.45;;;3.00;;
66946;SDS011;53853;51.982;5.928;2023-08-17T13:56:55;6.35;;;3.35;;
66946;SDS011;53853;51.982;5.928;2023-08-17T13:59:25;8.63;;;4.10;;
66946;SDS011;53853;51.982;5.928;2023-08-17T14:01:58;4.68;;;3.17;;
66946;SDS011;53853;51.982;5.928;2023-08-17T14:04:28;5.32;;;2.58;;
66946;SDS011;53853;51.982;5.928;2023-08-17T14:06:58;5.13;;;3.05;;
66946;SDS011;53853;51.982;5.928;2023-08-17T14:09:28;4.07;;;2.85;;
66946;SDS011;53853;51.982;5.928;2023-08-17T14:11:58;4.63;;;2.80;;
66946;SDS011;53853;51.982;5.928;2023-08-17T14:14:28;5.85;;;3.90;;
66946;SDS011;53853;51.982;5.928;2023-08-17T14:17:01;6.93;;;4.10;;
66946;SDS011;53853;51.982;5.928;2023-08-17T14:19:31;5.32;;;4.13;;
66946;SDS011;53853;51.982;5.928;2023-08-17T14:22:01;5.60;;;3.85;;
66946;SDS011;53853;51.982;5.928;2023-08-17T14:24:31;4.75;;;3.15;;
66946;SDS011;53853;51.982;5.928;2023-08-17T14:27:01;3.65;;;2.75;;
66946;SDS011;53853;51.982;5.928;2023-08-17T14:29:31;5.60;;;3.72;;
66946;SDS011;53853;51.982;5.928;2023-08-17T14:32:04;6.47;;;5.50;;
66946;SDS011;53853;51.982;5.928;2023-08-17T14:34:34;6.93;;;4.47;;
66946;SDS011;53853;51.982;5.928;2023-08-17T14:37:04;4.65;;;3.30;;
66946;SDS011;53853;51.982;5.928;2023-08-17T14:39:34;6.38;;;3.58;;
66946;SDS011;53853;51.982;5.928;2023-08-17T14:42:04;4.15;;;3.30;;
66946;SDS011;53853;51.982;5.928;2023-08-17T14:44:34;4.15;;;2.65;;
66946;SDS011;53853;51.982;5.928;2023-08-17T14:47:07;5.95;;;4.65;;
66946;SDS011;53853;51.982;5.928;2023-08-17T14:49:37;7.53;;;5.05;;
66946;SDS011;53853;51.982;5.928;2023-08-17T14:52:07;6.38;;;5.47;;
66946;SDS011;53853;51.982;5.928;2023-08-17T14:54:36;8.00;;;5.50;;
66946;SDS011;53853;51.982;5.928;2023-08-17T14:57:06;6.32;;;4.43;;
66946;SDS011;53853;51.982;5.928;2023-08-17T14:59:36;5.93;;;3.67;;
66946;SDS011;53853;51.982;5.928;2023-08-17T15:02:09;4.55;;;2.88;;
66946;SDS011;53853;51.982;5.928;2023-08-17T15:04:39;5.35;;;3.42;;
66946;SDS011;53853;51.982;5.928;2023-08-17T15:07:09;6.90;;;4.05;;
66946;SDS011;53853;51.982;5.928;2023-08-17T15:09:39;5.07;;;3.58;;
66946;SDS011;53853;51.982;5.928;2023-08-17T15:12:10;4.65;;;3.97;;
66946;SDS011;53853;51.982;5.928;2023-08-17T15:14:39;6.85;;;6.15;;
66946;SDS011;53853;51.982;5.928;2023-08-17T15:17:12;5.65;;;4.57;;
66946;SDS011;53853;51.982;5.928;2023-08-17T15:19:42;5.10;;;3.85;;
66946;SDS011;53853;51.982;5.928;2023-08-17T15:22:12;11.82;;;7.05;;
66946;SDS011;53853;51.982;5.928;2023-08-17T15:24:42;5.85;;;5.25;;
66946;SDS011;53853;51.982;5.928;2023-08-17T15:27:12;6.78;;;4.72;;